This is the latest recevied weather packets stored in our database for station/object R2AJV-13. If no packets are shown the sender has not sent any weather packets the latest 10 day(s).
| Time | Temp. | Humidity | Pressure | Rain* | Wind** | Luminosity | Snow |
|---|---|---|---|---|---|---|---|
| 1787424340 | 16.11° C | 94% | 997.7 hPa | 0 mm | - | - | - |
| 1787423434 | 15.56° C | 96% | 997.8 hPa | 0 mm | - | - | - |
| 1787422524 | 15.56° C | 97% | 998.2 hPa | 0 mm | - | - | - |
| 1787421674 | 16.11° C | 96% | 998.3 hPa | 0 mm | - | - | - |
| 1787420763 | 16.11° C | 97% | 998.4 hPa | 0 mm | - | - | - |
| 1787419853 | 16.11° C | 97% | 998.4 hPa | 0 mm | - | - | - |
| 1787418948 | 16.11° C | 97% | 998.5 hPa | 0 mm | - | - | - |
| 1787418375 | 16.11° C | 97% | 998.7 hPa | 0 mm | - | - | - |
| 1787417465 | 16.11° C | 96% | 998.5 hPa | 0 mm | - | - | - |
| 1787416554 | 16.67° C | 96% | 998.6 hPa | 0 mm | - | - | - |
| 1787415649 | 16.67° C | 96% | 998.6 hPa | 0.25 mm | - | - | - |
| 1787414427 | 16.67° C | 97% | 998.7 hPa | 1.02 mm | - | - | - |
| 1787413517 | 16.67° C | 98% | 998.9 hPa | 1.02 mm | - | - | - |
| 1787412672 | 17.22° C | 97% | 999.4 hPa | 1.02 mm | - | - | - |
| 1787411762 | 17.22° C | 96% | 999.8 hPa | 0.51 mm | - | - | - |
| 1787410851 | 17.78° C | 94% | 999.9 hPa | 0 mm | - | - | - |
| 1787409941 | 18.33° C | 93% | 1000 hPa | 0 mm | - | - | - |
| 1787409036 | 18.33° C | 93% | 1000.1 hPa | 0 mm | - | - | - |
| 1787408125 | 18.89° C | 92% | 1000.3 hPa | 0 mm | - | - | - |
| 1787407275 | 19.44° C | 87% | 1000.4 hPa | 0 mm | - | - | - |
| 1787406364 | 20° C | 83% | 1000.5 hPa | 0 mm | - | - | - |
| 1787405454 | 20.56° C | 77% | 1000.3 hPa | 0 mm | - | - | - |
| 1787403665 | 21.11° C | 70% | 1000.4 hPa | 0 mm | - | - | - |
| 1787402760 | 21.67° C | 67% | 1000.9 hPa | 0 mm | - | - | - |
| 1787401849 | 22.78° C | 62% | 1000.9 hPa | 0 mm | - | - | - |
* Rain latest hour (hover to see other rain measurements)
** Current wind speed in m/s (hover to see current wind gust speed)